createdAt,value
2018-05-23T00:00:21.196Z,74648.13
2018-05-23T00:02:52.990Z,74679.50
2018-05-23T00:05:24.207Z,74663.31
2018-05-23T00:07:55.704Z,74655.22
2018-05-23T00:10:26.976Z,74710.88
2018-05-23T00:12:58.762Z,74740.22
2018-05-23T00:15:30.508Z,74724.03
2018-05-23T00:18:01.902Z,74752.36
2018-05-23T00:20:33.312Z,74759.45
2018-05-23T00:23:05.096Z,74764.51
2018-05-23T00:25:36.969Z,74761.47
2018-05-23T00:28:08.592Z,74757.42
2018-05-23T00:30:40.668Z,74758.44
2018-05-23T00:33:11.825Z,74737.19
2018-05-23T00:35:42.932Z,74698.73
2018-05-23T00:38:14.228Z,74705.81
2018-05-23T00:40:45.320Z,74767.55
2018-05-23T00:43:16.635Z,74773.61
2018-05-23T00:45:47.692Z,74806.00
2018-05-23T00:48:19.347Z,74771.59
2018-05-23T00:50:50.835Z,74768.55
2018-05-23T00:53:21.983Z,74789.80
2018-05-23T00:55:53.532Z,74830.28
2018-05-23T00:58:24.779Z,74841.42
2018-05-23T01:00:56.621Z,74844.45
2018-05-23T01:03:31.754Z,74842.43
2018-05-23T01:06:03.921Z,74788.80
2018-05-23T01:08:35.466Z,74771.59
2018-05-23T01:11:09.992Z,74859.63
2018-05-23T01:13:41.159Z,74854.58
2018-05-23T01:16:13.285Z,74824.21
2018-05-23T01:18:44.415Z,74854.58
2018-05-23T01:21:15.989Z,74845.47
2018-05-23T01:23:48.084Z,74797.91
2018-05-23T01:26:19.677Z,74783.73
2018-05-23T01:28:51.635Z,74811.06
2018-05-23T01:31:22.647Z,74882.91
2018-05-23T01:33:56.559Z,74913.27
2018-05-23T01:36:28.116Z,74951.73
2018-05-23T01:38:59.059Z,74955.77
2018-05-23T01:41:30.493Z,74934.52
2018-05-23T01:44:02.236Z,74840.41
2018-05-23T01:46:33.803Z,74806.00
2018-05-23T01:49:38.503Z,74806.00
2018-05-23T01:52:09.787Z,74868.74
2018-05-23T01:54:41.466Z,74825.22
2018-05-23T01:57:13.520Z,74858.63
2018-05-23T01:59:45.175Z,74881.90
2018-05-23T02:02:16.847Z,74926.42
2018-05-23T02:04:48.776Z,74876.84
2018-05-23T02:07:20.367Z,74921.36
2018-05-23T02:09:52.012Z,74909.22
2018-05-23T02:12:24.032Z,74912.26
2018-05-23T02:14:55.656Z,75011.44
2018-05-23T02:17:29.561Z,75025.61
2018-05-23T02:20:01.020Z,74962.86
2018-05-23T02:22:36.622Z,74911.25
2018-05-23T02:25:08.825Z,74869.75
2018-05-23T02:27:40.401Z,74843.44
2018-05-23T02:30:11.345Z,74864.70
2018-05-23T02:32:43.040Z,74888.98
2018-05-23T02:35:14.400Z,74941.61
2018-05-23T02:37:45.676Z,74986.14
2018-05-23T02:40:18.345Z,75023.58
2018-05-23T02:42:49.318Z,75082.28
2018-05-23T02:45:20.295Z,75068.11
2018-05-23T02:47:52.058Z,75023.58
2018-05-23T02:50:24.556Z,74979.05
2018-05-23T02:52:55.519Z,74995.25
2018-05-23T02:55:27.632Z,75056.98
2018-05-23T02:57:59.379Z,75014.47
2018-05-23T03:00:30.983Z,75008.40
2018-05-23T03:03:03.236Z,75037.75
2018-05-23T03:05:36.307Z,75024.59
2018-05-23T03:08:08.335Z,74978.04
2018-05-23T03:10:40.428Z,74962.86
2018-05-23T03:13:12.242Z,74985.13
2018-05-23T03:15:43.220Z,75044.84
2018-05-23T03:18:14.781Z,75094.42
2018-05-23T03:21:02.652Z,75149.08
2018-05-23T03:23:33.981Z,75050.91
2018-05-23T03:26:05.903Z,75163.25
2018-05-23T03:28:37.307Z,75155.16
2018-05-23T03:31:08.933Z,75132.88
2018-05-23T03:33:40.560Z,75152.11
2018-05-23T03:36:12.059Z,75117.70
2018-05-23T03:38:44.085Z,75130.86
2018-05-23T03:41:16.107Z,75158.19
2018-05-23T03:43:48.236Z,75099.48
2018-05-23T03:46:19.991Z,75055.97
2018-05-23T03:48:51.305Z,75051.92
2018-05-23T03:51:22.858Z,75087.34
2018-05-23T03:53:54.884Z,75104.55
2018-05-23T03:56:26.192Z,75133.89
2018-05-23T03:58:58.028Z,75125.80
2018-05-23T04:02:39.588Z,75102.52
2018-05-23T04:07:24.035Z,75116.69
2018-05-23T04:10:11.524Z,75107.58
2018-05-23T04:12:43.283Z,75069.13
2018-05-23T04:18:16.731Z,75115.68
2018-05-23T04:20:47.772Z,75134.91
2018-05-23T04:23:19.714Z,75053.94
2018-05-23T04:25:51.985Z,75114.67
2018-05-23T04:28:23.567Z,75068.11
2018-05-23T04:30:55.400Z,75048.88
2018-05-23T04:33:26.902Z,75068.11
2018-05-23T04:35:58.156Z,75030.67
2018-05-23T04:38:30.217Z,75009.41
2018-05-23T04:41:01.889Z,74979.05
2018-05-23T04:43:33.699Z,74963.88
2018-05-23T04:46:05.859Z,74952.73
2018-05-23T04:48:36.879Z,75010.42
2018-05-23T04:51:08.189Z,75024.59
2018-05-23T04:53:40.420Z,75023.58
2018-05-23T04:56:15.763Z,74978.04
2018-05-23T04:58:47.323Z,74990.19
2018-05-23T05:01:18.732Z,75024.59
2018-05-23T05:03:50.019Z,75039.77
2018-05-23T05:06:23.472Z,75037.75
2018-05-23T05:08:54.823Z,75043.83
2018-05-23T05:11:25.843Z,75044.84
2018-05-23T05:13:57.459Z,75047.88
2018-05-23T05:16:28.831Z,75037.75
2018-05-23T05:18:59.870Z,75039.77
2018-05-23T05:21:30.932Z,75041.80
2018-05-23T05:24:02.802Z,75019.53
2018-05-23T05:26:33.790Z,74998.28
2018-05-23T05:29:05.320Z,74956.78
2018-05-23T05:31:36.703Z,74992.20
2018-05-23T05:34:07.775Z,74909.22
2018-05-23T05:36:39.112Z,74937.56
2018-05-23T05:39:10.627Z,74917.31
2018-05-23T05:41:41.700Z,74927.44
2018-05-23T05:44:12.970Z,74955.77
2018-05-23T05:46:44.168Z,74961.84
2018-05-23T05:49:15.151Z,74939.58
2018-05-23T05:51:46.431Z,74958.81
2018-05-23T05:54:17.929Z,74940.59
2018-05-23T05:56:48.956Z,74886.95
2018-05-23T05:59:21.575Z,74947.68
2018-05-23T06:01:52.637Z,74961.84
2018-05-23T06:04:25.608Z,74966.91
2018-05-23T06:06:56.973Z,74955.77
2018-05-23T06:09:28.024Z,74931.48
2018-05-23T06:11:59.347Z,74942.63
2018-05-23T06:14:30.814Z,74958.81
2018-05-23T06:17:01.800Z,74939.58
2018-05-23T06:19:33.042Z,74915.30
2018-05-23T06:22:04.088Z,74896.06
2018-05-23T06:24:35.375Z,74932.50
2018-05-23T06:27:07.234Z,74877.85
2018-05-23T06:29:38.599Z,74780.70
2018-05-23T06:32:10.239Z,74849.52
2018-05-23T06:34:44.511Z,74786.77
2018-05-23T06:37:15.789Z,74762.48
2018-05-23T06:39:46.776Z,74731.11
2018-05-23T06:42:18.195Z,74802.96
2018-05-23T06:44:49.862Z,74859.63
2018-05-23T06:47:21.529Z,74797.91
2018-05-23T06:49:53.503Z,74738.20
2018-05-23T06:52:24.891Z,74722.00
2018-05-23T06:54:56.698Z,74827.25
2018-05-23T06:57:27.979Z,74842.43
2018-05-23T06:59:58.967Z,74770.58
2018-05-23T07:02:30.296Z,74773.61
2018-05-23T07:05:02.330Z,74728.08
2018-05-23T07:07:33.987Z,74822.19
2018-05-23T07:10:06.012Z,74782.72
2018-05-23T07:12:37.348Z,74774.63
2018-05-23T07:15:09.039Z,74703.79
2018-05-23T07:17:40.956Z,74797.91
2018-05-23T07:20:12.509Z,74801.95
2018-05-23T07:22:44.072Z,74683.55
2018-05-23T07:25:16.074Z,74592.47
2018-05-23T07:27:47.535Z,74701.77
2018-05-23T07:30:18.989Z,74651.16
2018-05-23T07:32:52.106Z,74635.98
2018-05-23T07:35:24.616Z,74568.19
2018-05-23T07:37:56.111Z,74536.82
2018-05-23T07:40:28.261Z,74518.61
2018-05-23T07:42:59.294Z,74523.66
2018-05-23T07:45:30.255Z,74427.53
2018-05-23T07:48:02.205Z,74462.95
2018-05-23T07:50:34.907Z,74453.84
2018-05-23T07:53:06.031Z,74591.46
2018-05-23T07:55:37.675Z,74374.92
2018-05-23T07:58:09.406Z,74365.81
2018-05-23T08:00:41.091Z,74245.41
2018-05-23T08:03:12.455Z,74315.22
2018-05-23T08:05:43.871Z,74354.69
2018-05-23T08:08:15.904Z,74237.31
2018-05-23T08:10:47.307Z,74403.25
2018-05-23T08:13:18.784Z,74189.75
2018-05-23T08:15:50.871Z,74282.84
2018-05-23T08:18:22.655Z,74154.34
2018-05-23T08:20:54.667Z,74147.26
2018-05-23T08:23:26.199Z,74128.03
2018-05-23T08:25:57.611Z,74010.67
2018-05-23T08:28:29.367Z,74020.78
2018-05-23T08:31:00.468Z,74027.87
2018-05-23T08:33:32.221Z,73941.88
2018-05-23T08:36:04.097Z,73970.20
2018-05-23T08:38:36.086Z,73852.84
2018-05-23T08:41:07.454Z,73837.66
2018-05-23T08:43:39.064Z,73843.73
2018-05-23T08:46:11.099Z,73827.55
2018-05-23T08:48:42.836Z,73919.61
2018-05-23T08:51:14.619Z,73902.41
2018-05-23T08:53:46.268Z,73981.33
2018-05-23T08:56:17.939Z,73891.28
2018-05-23T08:58:49.311Z,73889.27
2018-05-23T09:01:20.762Z,73922.65
2018-05-23T09:03:52.111Z,73909.50
2018-05-23T09:06:23.453Z,73846.77
2018-05-23T09:08:54.399Z,73884.20
2018-05-23T09:11:26.145Z,73859.92
2018-05-23T09:13:57.399Z,73930.74
2018-05-23T09:16:28.869Z,74059.23
2018-05-23T09:18:59.819Z,73992.45
2018-05-23T09:21:31.429Z,73928.72
2018-05-23T09:24:03.256Z,73930.74
2018-05-23T09:26:34.247Z,73855.88
2018-05-23T09:29:05.411Z,73869.03
2018-05-23T09:31:36.711Z,73814.39
2018-05-23T09:34:15.319Z,73781.02
2018-05-23T09:36:46.649Z,73707.16
2018-05-23T09:39:17.626Z,73697.04
2018-05-23T09:41:49.394Z,73746.61
2018-05-23T09:44:21.135Z,73697.04
2018-05-23T09:46:52.675Z,73651.52
2018-05-23T09:49:24.699Z,73642.41
2018-05-23T09:51:55.660Z,73675.80
2018-05-23T09:54:27.647Z,73581.72
2018-05-23T09:56:59.987Z,73624.20
2018-05-23T09:59:31.000Z,73698.05
2018-05-23T10:02:02.795Z,73736.50
2018-05-23T10:04:33.791Z,73793.15
2018-05-23T10:07:04.795Z,73798.20
2018-05-23T10:09:40.115Z,73848.80
2018-05-23T10:12:11.523Z,73839.69
2018-05-23T10:14:47.115Z,73803.27
2018-05-23T10:17:18.182Z,73821.48
2018-05-23T10:19:49.220Z,73899.38
2018-05-23T10:22:20.495Z,73851.83
2018-05-23T10:24:51.513Z,73774.94
2018-05-23T10:27:22.544Z,73787.08
2018-05-23T10:29:53.643Z,73876.11
2018-05-23T10:32:24.999Z,73971.21
2018-05-23T10:34:56.042Z,73954.02
2018-05-23T10:40:12.413Z,73790.11
2018-05-23T10:42:43.380Z,73762.80
2018-05-23T10:45:18.448Z,73809.34
2018-05-23T10:47:49.443Z,73850.81
2018-05-23T10:50:20.755Z,73845.76
2018-05-23T10:52:51.763Z,73772.92
2018-05-23T10:55:22.749Z,73738.52
2018-05-23T10:57:54.472Z,73801.24
2018-05-23T11:00:25.468Z,73743.58
2018-05-23T11:02:56.796Z,73888.25
2018-05-23T11:05:28.151Z,73846.77
2018-05-23T11:07:59.591Z,73810.34
2018-05-23T11:10:30.872Z,73849.80
2018-05-23T11:13:01.901Z,73793.15
2018-05-23T11:15:32.951Z,73732.45
2018-05-23T11:18:04.295Z,73790.11
2018-05-23T11:20:35.303Z,73767.86
2018-05-23T11:23:06.421Z,73677.82
2018-05-23T11:25:37.777Z,73684.91
2018-05-23T11:28:32.381Z,73631.28
2018-05-23T11:31:03.914Z,73854.86
2018-05-23T11:33:34.907Z,73794.16
2018-05-23T11:36:06.404Z,73787.08
2018-05-23T11:38:37.847Z,73791.13
2018-05-23T11:41:08.923Z,73777.97
2018-05-23T11:43:40.527Z,73811.36
2018-05-23T11:46:11.574Z,73811.36
2018-05-23T11:48:42.927Z,73817.43
2018-05-23T11:51:14.038Z,73740.54
2018-05-23T11:53:45.070Z,73683.89
2018-05-23T11:56:16.338Z,73684.91
2018-05-23T11:58:47.331Z,73765.83
2018-05-23T12:01:18.403Z,73628.25
2018-05-23T12:03:49.712Z,73799.22
2018-05-23T12:06:20.751Z,73705.13
2018-05-23T12:08:51.799Z,73629.27
2018-05-23T12:11:23.169Z,73591.83
2018-05-23T12:13:54.283Z,73562.49
2018-05-23T12:16:25.773Z,73538.21
2018-05-23T12:18:56.778Z,73591.83
2018-05-23T12:21:27.758Z,73681.86
2018-05-23T12:23:59.015Z,73630.27
2018-05-23T12:26:30.555Z,73618.13
2018-05-23T12:29:01.581Z,73545.30
2018-05-23T12:31:32.907Z,73564.52
2018-05-23T12:34:03.957Z,73612.06
2018-05-23T12:36:35.292Z,73619.14
2018-05-23T12:39:07.548Z,73503.82
2018-05-23T12:41:39.887Z,73501.80
2018-05-23T12:44:11.388Z,73602.95
2018-05-23T12:46:42.465Z,73488.64
2018-05-23T12:49:14.034Z,73549.34
2018-05-23T12:51:45.045Z,73560.47
2018-05-23T12:54:16.239Z,73591.83
2018-05-23T12:56:47.532Z,73596.89
2018-05-23T12:59:18.499Z,73736.50
2018-05-23T13:01:49.876Z,73697.04
2018-05-23T13:04:23.382Z,73651.52
2018-05-23T13:06:59.736Z,73665.68
2018-05-23T13:09:31.039Z,73696.03
2018-05-23T13:12:02.095Z,73684.91
2018-05-23T13:14:33.081Z,73696.03
2018-05-23T13:17:04.524Z,73620.16
2018-05-23T13:19:35.677Z,73610.04
2018-05-23T13:22:08.623Z,73629.27
2018-05-23T13:24:40.181Z,73632.30
2018-05-23T13:27:13.474Z,73592.84
2018-05-23T13:29:45.042Z,73706.14
2018-05-23T13:32:16.113Z,73648.48
2018-05-23T13:34:47.207Z,73636.34
2018-05-23T13:37:19.672Z,73632.30
2018-05-23T13:39:50.792Z,73627.23
2018-05-23T13:42:22.099Z,73632.30
2018-05-23T13:44:53.195Z,73649.49
2018-05-23T13:47:24.199Z,73633.30
2018-05-23T13:49:55.710Z,73597.90
2018-05-23T13:52:26.963Z,73543.27
2018-05-23T13:54:58.019Z,73562.49
2018-05-23T13:57:29.422Z,73528.09
2018-05-23T14:00:01.165Z,73687.94
2018-05-23T14:02:32.578Z,73560.47
2018-05-23T14:05:04.377Z,73601.95
2018-05-23T14:07:35.408Z,73529.11
2018-05-23T14:10:07.067Z,73534.17
2018-05-23T14:12:38.207Z,73597.90
2018-05-23T14:15:10.907Z,73636.34
2018-05-23T14:17:43.171Z,73668.72
2018-05-23T14:20:15.256Z,73717.27
2018-05-23T14:22:46.780Z,73706.14
2018-05-23T14:25:18.201Z,73683.89
2018-05-23T14:27:49.364Z,73712.22
2018-05-23T14:30:20.912Z,73757.73
2018-05-23T14:32:52.161Z,73796.19
2018-05-23T14:35:23.643Z,73747.63
2018-05-23T14:37:55.103Z,73757.73
2018-05-23T14:40:27.268Z,73777.97
2018-05-23T14:42:59.165Z,73806.30
2018-05-23T14:45:30.355Z,73759.77
2018-05-23T14:48:01.715Z,73772.92
2018-05-23T14:50:33.053Z,73828.56
2018-05-23T14:53:04.435Z,73839.69
2018-05-23T14:55:35.859Z,73859.92
2018-05-23T14:58:07.724Z,73872.06
2018-05-23T15:00:39.115Z,73887.23
2018-05-23T15:03:11.643Z,73869.03
2018-05-23T15:05:43.039Z,73860.94
2018-05-23T15:08:15.514Z,73869.03
2018-05-23T15:10:47.327Z,73874.09
2018-05-23T15:13:27.564Z,73846.77
2018-05-23T15:15:59.327Z,73885.22
2018-05-23T15:18:35.771Z,73909.50
2018-05-23T15:21:09.453Z,73911.52
2018-05-23T15:23:40.691Z,73914.55
2018-05-23T15:26:12.475Z,73915.56
2018-05-23T15:28:43.488Z,73907.47
2018-05-23T15:31:14.762Z,73954.02
2018-05-23T15:33:46.756Z,73953.00
2018-05-23T15:36:18.228Z,73911.52
2018-05-23T15:38:49.295Z,73941.88
2018-05-23T15:41:20.654Z,73917.59
2018-05-23T15:43:52.647Z,73923.66
2018-05-23T15:46:24.704Z,73983.35
2018-05-23T15:49:00.052Z,73968.17
2018-05-23T15:51:31.177Z,73973.23
2018-05-23T15:54:03.008Z,74009.66
2018-05-23T15:56:34.209Z,74037.98
2018-05-23T15:59:11.573Z,74027.87
2018-05-23T16:01:45.426Z,73994.48
2018-05-23T16:04:17.364Z,74023.83
2018-05-23T16:06:48.685Z,73987.40
2018-05-23T16:09:20.138Z,73993.47
2018-05-23T16:11:51.742Z,74027.87
2018-05-23T16:14:23.806Z,74003.59
2018-05-23T16:16:55.207Z,73999.54
2018-05-23T16:19:26.910Z,74002.58
2018-05-23T16:21:58.257Z,73990.44
2018-05-23T16:24:29.811Z,74018.77
2018-05-23T16:27:15.896Z,74072.39
2018-05-23T16:29:47.598Z,74029.89
2018-05-23T16:32:19.379Z,74014.72
2018-05-23T16:34:51.072Z,74035.97
2018-05-23T16:37:22.400Z,74070.36
2018-05-23T16:42:30.161Z,74080.48
2018-05-23T16:45:01.580Z,74095.66
2018-05-23T16:47:33.467Z,74086.55
2018-05-23T16:50:04.895Z,74081.49
2018-05-23T16:52:39.116Z,74154.34
2018-05-23T16:55:11.017Z,74069.35
2018-05-23T16:57:43.298Z,74071.38
2018-05-23T17:00:15.193Z,74047.09
2018-05-23T17:02:46.537Z,74064.30
2018-05-23T17:05:24.869Z,74027.87
2018-05-23T17:07:56.439Z,74077.45
2018-05-23T17:10:28.449Z,74077.45
2018-05-23T17:12:59.828Z,74087.56
2018-05-23T17:15:31.775Z,74074.41
2018-05-23T17:18:03.004Z,74135.12
2018-05-23T17:20:34.893Z,74103.75
2018-05-23T17:23:08.427Z,74136.13
2018-05-23T17:25:40.173Z,74120.95
2018-05-23T17:28:16.775Z,74122.98
2018-05-23T17:30:48.165Z,74140.17
2018-05-23T17:33:19.564Z,74131.07
2018-05-23T17:35:50.679Z,74136.13
2018-05-23T17:38:22.811Z,74127.02
2018-05-23T17:40:55.187Z,74163.45
2018-05-23T17:43:26.319Z,74140.17
2018-05-23T17:45:57.965Z,74156.36
2018-05-23T17:48:29.024Z,74170.53
2018-05-23T17:51:00.406Z,74184.70
2018-05-23T17:53:31.718Z,74189.75
2018-05-23T17:56:03.835Z,74198.86
2018-05-23T17:58:35.093Z,74205.94
2018-05-23T18:01:06.582Z,74172.55
2018-05-23T18:03:37.567Z,74161.42
2018-05-23T18:06:09.032Z,74251.47
2018-05-23T18:08:40.299Z,74365.81
2018-05-23T18:11:11.742Z,74413.38
2018-05-23T18:13:43.312Z,74411.34
2018-05-23T18:16:15.259Z,74415.39
2018-05-23T18:18:47.950Z,74409.32
2018-05-23T18:21:19.267Z,74355.70
2018-05-23T18:23:50.563Z,74294.98
2018-05-23T18:26:21.776Z,74305.10
2018-05-23T18:28:53.095Z,74408.31
2018-05-23T18:31:24.100Z,74440.69
2018-05-23T18:33:55.188Z,74444.73
2018-05-23T18:36:26.592Z,74442.72
2018-05-23T18:38:57.746Z,74423.48
2018-05-23T18:41:29.991Z,74434.62
2018-05-23T18:44:01.336Z,74430.57
2018-05-23T18:46:32.384Z,74475.09
2018-05-23T18:49:07.388Z,74492.30
2018-05-23T18:51:38.767Z,74485.21
2018-05-23T18:54:10.376Z,74509.50
2018-05-23T18:56:41.384Z,74468.02
2018-05-23T18:59:12.731Z,74441.70
2018-05-23T19:01:43.899Z,74486.22
2018-05-23T19:04:19.789Z,74498.37
2018-05-23T19:06:55.080Z,74445.75
2018-05-23T19:09:29.035Z,74476.11
2018-05-23T19:12:05.171Z,74463.97
2018-05-23T19:14:36.320Z,74473.07
2018-05-23T19:17:07.894Z,74487.23
2018-05-23T19:19:39.298Z,74486.22
2018-05-23T19:22:10.530Z,74482.17
2018-05-23T19:24:41.803Z,74524.67
2018-05-23T19:27:13.027Z,74507.48
2018-05-23T19:32:21.771Z,74541.88
2018-05-23T19:34:52.935Z,74585.39
2018-05-23T19:37:25.047Z,74582.36
2018-05-23T19:39:56.721Z,74573.25
2018-05-23T19:42:28.007Z,74513.55
2018-05-23T19:45:00.170Z,74507.48
2018-05-23T19:47:31.226Z,74528.73
2018-05-23T19:50:02.589Z,74563.13
2018-05-23T19:52:33.910Z,74610.69
2018-05-23T19:55:04.991Z,74557.06
2018-05-23T19:57:36.044Z,74622.84
2018-05-23T20:00:09.643Z,74557.06
2018-05-23T20:02:40.704Z,74576.28
2018-05-23T20:05:12.094Z,74597.53
2018-05-23T20:07:43.271Z,74600.57
2018-05-23T20:10:14.331Z,74598.55
2018-05-23T20:12:45.603Z,74589.44
2018-05-23T20:15:16.784Z,74583.37
2018-05-23T20:17:47.843Z,74561.11
2018-05-23T20:20:19.272Z,74549.98
2018-05-23T20:22:50.389Z,74545.93
2018-05-23T20:25:21.719Z,74497.36
2018-05-23T20:27:52.748Z,74490.27
2018-05-23T20:30:23.711Z,74484.20
2018-05-23T20:32:55.064Z,74491.28
2018-05-23T20:35:27.016Z,74512.53
2018-05-23T20:37:58.092Z,74537.83
2018-05-23T20:40:29.431Z,74544.92
2018-05-23T20:43:00.427Z,74574.27
2018-05-23T20:45:31.411Z,74573.25
2018-05-23T20:48:02.787Z,74554.02
2018-05-23T20:50:33.807Z,74577.30
2018-05-23T20:53:05.174Z,74596.52
2018-05-23T20:55:36.225Z,74558.07
2018-05-23T20:58:07.243Z,74565.16
2018-05-23T21:00:38.631Z,74596.52
2018-05-23T21:03:09.692Z,74610.69
2018-05-23T21:05:40.717Z,74572.23
2018-05-23T21:08:12.241Z,74592.47
2018-05-23T21:10:43.316Z,74616.77
2018-05-23T21:13:14.324Z,74612.72
2018-05-23T21:15:45.649Z,74603.61
2018-05-23T21:18:16.716Z,74611.70
2018-05-23T21:20:47.982Z,74628.91
2018-05-23T21:23:18.900Z,74612.72
2018-05-23T21:25:49.909Z,74613.73
2018-05-23T21:28:21.716Z,74634.98
2018-05-23T21:30:52.845Z,74603.61
2018-05-23T21:33:24.232Z,74592.47
2018-05-23T21:35:55.938Z,74641.05
2018-05-23T21:38:26.939Z,74643.08
2018-05-23T21:40:58.144Z,74653.19
2018-05-23T21:43:29.056Z,74609.67
2018-05-23T21:46:00.255Z,74655.22
2018-05-23T21:48:31.161Z,74666.34
2018-05-23T21:51:02.720Z,74680.52
2018-05-23T21:53:37.004Z,74634.98
2018-05-23T21:56:08.084Z,74657.23
2018-05-23T21:58:40.963Z,74690.63
2018-05-23T22:01:14.952Z,74690.63
2018-05-23T22:03:46.101Z,74694.68
2018-05-23T22:06:17.145Z,74671.41
2018-05-23T22:08:48.954Z,74651.16
2018-05-23T22:11:20.381Z,74638.02
2018-05-23T22:13:52.969Z,74653.19
2018-05-23T22:16:24.384Z,74650.16
2018-05-23T22:18:55.824Z,74670.39
2018-05-23T22:21:27.084Z,74675.45
2018-05-23T22:23:58.521Z,74651.16
2018-05-23T22:26:30.197Z,74620.81
2018-05-23T22:29:02.069Z,74680.52
2018-05-23T22:31:33.122Z,74647.13
2018-05-23T22:34:05.204Z,74657.23
2018-05-23T22:36:36.324Z,74663.31
2018-05-23T22:39:08.002Z,74656.23
2018-05-23T22:41:39.377Z,74659.27
2018-05-23T22:44:10.546Z,74644.09
2018-05-23T22:46:41.509Z,74682.54
2018-05-23T22:49:13.242Z,74713.91
2018-05-23T22:51:44.211Z,74691.64
2018-05-23T22:54:16.100Z,74715.93
2018-05-23T22:56:47.493Z,74734.15
2018-05-23T22:59:18.794Z,74763.50
2018-05-23T23:01:50.822Z,74683.55
2018-05-23T23:04:22.166Z,74717.95
2018-05-23T23:06:53.164Z,74701.77
2018-05-23T23:09:24.512Z,74680.52
2018-05-23T23:11:55.629Z,74668.38
2018-05-23T23:14:28.390Z,74687.59
2018-05-23T23:16:59.314Z,74692.66
2018-05-23T23:19:31.212Z,74666.34
2018-05-23T23:22:02.465Z,74682.54
2018-05-23T23:24:40.724Z,74627.89
2018-05-23T23:27:11.984Z,74649.14
2018-05-23T23:29:43.358Z,74681.53
2018-05-23T23:32:22.829Z,74677.48
2018-05-23T23:34:54.432Z,74658.25
2018-05-23T23:37:25.419Z,74654.20
2018-05-23T23:39:57.145Z,74705.81
2018-05-23T23:42:28.380Z,74670.39
2018-05-23T23:44:59.367Z,74649.14
2018-05-23T23:47:31.152Z,74697.72
2018-05-23T23:50:02.105Z,74706.83
2018-05-23T23:52:33.392Z,74708.84
2018-05-23T23:55:04.846Z,74713.91
2018-05-23T23:57:35.778Z,74667.36
